createdAt,value
2019-05-20T00:00:36.462Z,19.82
2019-05-20T00:01:36.398Z,19.77
2019-05-20T00:02:36.366Z,19.91
2019-05-20T00:03:36.295Z,19.89
2019-05-20T00:04:36.271Z,19.89
2019-05-20T00:05:36.243Z,19.79
2019-05-20T00:06:36.164Z,19.91
2019-05-20T00:07:36.111Z,19.89
2019-05-20T00:08:36.086Z,19.89
2019-05-20T00:09:36.031Z,19.79
2019-05-20T00:10:36.002Z,19.85
2019-05-20T00:11:35.934Z,19.86
2019-05-20T00:12:35.875Z,19.95
2019-05-20T00:13:35.828Z,19.85
2019-05-20T00:14:35.794Z,19.84
2019-05-20T00:15:35.747Z,19.70
2019-05-20T00:16:35.712Z,19.67
2019-05-20T00:17:35.667Z,19.74
2019-05-20T00:18:35.600Z,19.81
2019-05-20T00:19:35.558Z,19.66
2019-05-20T00:20:35.500Z,19.70
2019-05-20T00:21:35.462Z,19.71
2019-05-20T00:22:35.420Z,19.77
2019-05-20T00:23:35.360Z,19.82
2019-05-20T00:24:35.326Z,19.82
2019-05-20T00:25:35.279Z,19.67
2019-05-20T00:26:35.232Z,19.74
2019-05-20T00:27:35.181Z,19.74
2019-05-20T00:28:35.150Z,19.74
2019-05-20T00:29:35.100Z,19.84
2019-05-20T00:30:35.045Z,19.70
2019-05-20T00:31:35.006Z,19.69
2019-05-20T00:32:41.198Z,19.64
2019-05-20T00:33:34.892Z,19.67
2019-05-20T00:34:35.764Z,19.74
2019-05-20T00:35:34.819Z,19.67
2019-05-20T00:36:34.765Z,19.63
2019-05-20T00:37:34.705Z,19.67
2019-05-20T00:38:34.668Z,19.67
2019-05-20T00:39:34.611Z,19.71
2019-05-20T00:40:34.577Z,19.76
2019-05-20T00:41:34.541Z,19.70
2019-05-20T00:42:34.543Z,19.82
2019-05-20T00:43:34.441Z,19.74
2019-05-20T00:44:34.388Z,19.77
2019-05-20T00:45:34.351Z,19.76
2019-05-20T00:46:34.297Z,19.76
2019-05-20T00:47:34.258Z,19.66
2019-05-20T00:48:34.222Z,19.82
2019-05-20T00:49:34.151Z,19.82
2019-05-20T00:50:34.121Z,19.77
2019-05-20T00:51:34.062Z,19.82
2019-05-20T00:52:34.020Z,19.71
2019-05-20T00:53:33.969Z,19.73
2019-05-20T00:54:33.923Z,19.81
2019-05-20T00:55:33.874Z,19.81
2019-05-20T00:56:33.837Z,19.71
2019-05-20T00:57:33.779Z,19.71
2019-05-20T00:58:33.743Z,19.69
2019-05-20T00:59:33.688Z,19.81
2019-05-20T01:00:33.639Z,19.79
2019-05-20T01:01:33.605Z,19.82
2019-05-20T01:02:33.556Z,19.73
2019-05-20T01:03:33.498Z,19.82
2019-05-20T01:04:33.452Z,19.84
2019-05-20T01:05:33.393Z,19.70
2019-05-20T01:06:33.346Z,19.79
2019-05-20T01:07:33.312Z,19.71
2019-05-20T01:08:33.276Z,19.81
2019-05-20T01:09:33.229Z,19.67
2019-05-20T01:10:33.171Z,19.82
2019-05-20T01:11:33.139Z,19.81
2019-05-20T01:12:33.081Z,19.85
2019-05-20T01:13:33.030Z,19.82
2019-05-20T01:14:32.973Z,19.86
2019-05-20T01:15:32.957Z,19.92
2019-05-20T01:16:32.890Z,19.85
2019-05-20T01:17:32.832Z,19.82
2019-05-20T01:18:32.793Z,19.85
2019-05-20T01:19:32.740Z,19.88
2019-05-20T01:20:32.697Z,19.82
2019-05-20T01:21:32.652Z,19.85
2019-05-20T01:22:32.608Z,19.85
2019-05-20T01:23:32.550Z,19.76
2019-05-20T01:24:32.514Z,19.81
2019-05-20T01:25:32.469Z,19.82
2019-05-20T01:26:32.444Z,19.79
2019-05-20T01:27:32.371Z,19.79
2019-05-20T01:28:32.319Z,19.69
2019-05-20T01:29:32.281Z,19.63
2019-05-20T01:30:32.242Z,19.67
2019-05-20T01:31:32.187Z,19.66
2019-05-20T01:32:32.131Z,19.62
2019-05-20T01:33:32.094Z,19.59
2019-05-20T01:34:32.049Z,19.66
2019-05-20T01:35:32.002Z,19.62
2019-05-20T01:36:31.955Z,19.55
2019-05-20T01:37:31.894Z,19.64
2019-05-20T01:38:31.872Z,19.52
2019-05-20T01:39:31.813Z,19.67
2019-05-20T01:40:31.765Z,19.49
2019-05-20T01:41:31.707Z,19.55
2019-05-20T01:42:31.660Z,19.62
2019-05-20T01:43:31.618Z,19.59
2019-05-20T01:44:31.579Z,19.62
2019-05-20T01:45:31.534Z,19.56
2019-05-20T01:46:31.474Z,19.64
2019-05-20T01:47:31.438Z,19.69
2019-05-20T01:48:31.379Z,19.67
2019-05-20T01:49:31.333Z,19.70
2019-05-20T01:50:31.306Z,19.66
2019-05-20T01:51:31.247Z,19.62
2019-05-20T01:52:31.208Z,19.63
2019-05-20T01:53:31.149Z,19.69
2019-05-20T01:54:31.106Z,19.62
2019-05-20T01:55:31.075Z,19.67
2019-05-20T01:56:31.025Z,19.67
2019-05-20T01:57:30.974Z,19.66
2019-05-20T01:58:30.935Z,19.66
2019-05-20T01:59:30.884Z,19.64
2019-05-20T02:00:30.828Z,19.62
2019-05-20T02:01:30.783Z,19.55
2019-05-20T02:02:30.733Z,19.62
2019-05-20T02:03:32.331Z,19.58
2019-05-20T02:04:30.651Z,19.64
2019-05-20T02:05:30.606Z,19.67
2019-05-20T02:06:30.539Z,19.49
2019-05-20T02:07:30.501Z,19.58
2019-05-20T02:08:30.463Z,19.51
2019-05-20T02:09:30.394Z,19.59
2019-05-20T02:10:30.368Z,19.49
2019-05-20T02:11:30.302Z,19.54
2019-05-20T02:12:30.278Z,19.36
2019-05-20T02:13:30.222Z,19.44
2019-05-20T02:14:30.159Z,19.40
2019-05-20T02:15:30.130Z,19.36
2019-05-20T02:16:30.079Z,19.33
2019-05-20T02:17:30.033Z,19.40
2019-05-20T02:18:29.996Z,19.41
2019-05-20T02:19:29.936Z,19.41
2019-05-20T02:20:29.891Z,19.47
2019-05-20T02:21:29.834Z,19.51
2019-05-20T02:22:29.795Z,19.48
2019-05-20T02:23:29.759Z,19.49
2019-05-20T02:24:29.703Z,19.48
2019-05-20T02:25:29.664Z,19.48
2019-05-20T02:26:29.604Z,19.36
2019-05-20T02:27:29.572Z,19.36
2019-05-20T02:28:29.523Z,19.31
2019-05-20T02:29:29.476Z,19.30
2019-05-20T02:30:29.420Z,19.27
2019-05-20T02:31:29.375Z,19.26
2019-05-20T02:32:29.314Z,19.21
2019-05-20T02:33:29.268Z,19.19
2019-05-20T02:34:29.247Z,19.11
2019-05-20T02:35:29.190Z,19.21
2019-05-20T02:36:29.141Z,19.14
2019-05-20T02:37:29.081Z,19.04
2019-05-20T02:38:29.061Z,18.90
2019-05-20T02:39:28.998Z,18.98
2019-05-20T02:40:28.951Z,18.95
2019-05-20T02:41:28.925Z,18.98
2019-05-20T02:42:28.845Z,18.96
2019-05-20T02:43:28.807Z,19.00
2019-05-20T02:44:28.768Z,18.92
2019-05-20T02:45:28.665Z,18.95
2019-05-20T02:46:28.660Z,18.83
2019-05-20T02:47:28.629Z,18.92
2019-05-20T02:48:28.583Z,18.92
2019-05-20T02:49:28.514Z,18.96
2019-05-20T02:50:28.493Z,18.96
2019-05-20T02:51:28.447Z,18.96
2019-05-20T02:52:28.397Z,18.86
2019-05-20T02:53:28.341Z,18.88
2019-05-20T02:54:28.279Z,18.88
2019-05-20T02:55:28.271Z,18.86
2019-05-20T02:56:28.185Z,18.86
2019-05-20T02:57:28.164Z,18.92
2019-05-20T02:58:28.091Z,18.98
2019-05-20T02:59:28.059Z,19.00
2019-05-20T03:00:28.012Z,18.96
2019-05-20T03:01:27.950Z,18.96
2019-05-20T03:02:27.903Z,19.04
2019-05-20T03:03:27.866Z,19.08
2019-05-20T03:04:27.830Z,19.07
2019-05-20T03:05:27.762Z,18.95
2019-05-20T03:06:27.727Z,19.12
2019-05-20T03:07:27.667Z,19.08
2019-05-20T03:08:27.644Z,19.14
2019-05-20T03:09:27.600Z,19.16
2019-05-20T03:10:27.551Z,19.19
2019-05-20T03:11:27.502Z,19.22
2019-05-20T03:12:27.439Z,19.18
2019-05-20T03:13:27.409Z,19.24
2019-05-20T03:14:27.370Z,19.14
2019-05-20T03:15:27.314Z,19.09
2019-05-20T03:16:27.254Z,19.07
2019-05-20T03:17:27.223Z,19.04
2019-05-20T03:18:27.161Z,18.99
2019-05-20T03:19:27.101Z,18.98
2019-05-20T03:20:27.070Z,18.81
2019-05-20T03:21:27.019Z,18.92
2019-05-20T03:22:26.961Z,18.90
2019-05-20T03:23:26.913Z,18.86
2019-05-20T03:24:26.878Z,18.88
2019-05-20T03:25:26.843Z,18.81
2019-05-20T03:26:26.773Z,18.78
2019-05-20T03:27:26.725Z,18.89
2019-05-20T03:28:26.678Z,18.89
2019-05-20T03:29:26.647Z,18.84
2019-05-20T03:30:26.597Z,18.88
2019-05-20T03:31:26.560Z,18.81
2019-05-20T03:32:26.505Z,18.86
2019-05-20T03:33:26.464Z,18.86
2019-05-20T03:34:45.067Z,18.81
2019-05-20T03:35:26.362Z,18.88
2019-05-20T03:36:26.314Z,18.95
2019-05-20T03:37:26.263Z,18.99
2019-05-20T03:38:26.206Z,18.92
2019-05-20T03:39:26.159Z,19.00
2019-05-20T03:40:26.133Z,18.99
2019-05-20T03:41:26.073Z,18.90
2019-05-20T03:42:26.031Z,18.95
2019-05-20T03:43:25.992Z,19.04
2019-05-20T03:44:25.924Z,19.07
2019-05-20T03:45:25.889Z,19.09
2019-05-20T03:46:25.838Z,19.21
2019-05-20T03:47:25.812Z,19.21
2019-05-20T03:48:25.747Z,19.22
2019-05-20T03:49:25.696Z,19.27
2019-05-20T03:50:25.657Z,19.26
2019-05-20T03:51:25.607Z,19.21
2019-05-20T03:52:25.568Z,19.31
2019-05-20T03:53:25.509Z,19.33
2019-05-20T03:54:25.534Z,19.36
2019-05-20T03:55:25.418Z,19.36
2019-05-20T03:56:25.373Z,19.34
2019-05-20T03:57:25.328Z,19.30
2019-05-20T03:58:25.273Z,19.39
2019-05-20T03:59:25.238Z,19.33
2019-05-20T04:00:25.195Z,19.29
2019-05-20T04:01:25.142Z,19.33
2019-05-20T04:02:25.076Z,19.36
2019-05-20T04:03:25.042Z,19.40
2019-05-20T04:04:25.480Z,19.36
2019-05-20T04:05:24.969Z,19.24
2019-05-20T04:06:24.889Z,19.29
2019-05-20T04:07:24.855Z,19.27
2019-05-20T04:08:24.806Z,19.19
2019-05-20T04:09:24.773Z,19.18
2019-05-20T04:10:24.717Z,19.12
2019-05-20T04:11:24.671Z,19.09
2019-05-20T04:12:24.628Z,19.14
2019-05-20T04:13:24.572Z,19.18
2019-05-20T04:14:24.526Z,19.21
2019-05-20T04:15:24.476Z,19.31
2019-05-20T04:16:24.441Z,19.24
2019-05-20T04:17:24.371Z,19.19
2019-05-20T04:18:24.330Z,19.22
2019-05-20T04:19:24.308Z,19.18
2019-05-20T04:20:24.251Z,19.24
2019-05-20T04:21:24.194Z,19.29
2019-05-20T04:22:24.159Z,19.33
2019-05-20T04:23:24.120Z,19.33
2019-05-20T04:24:24.063Z,19.29
2019-05-20T04:25:24.019Z,19.34
2019-05-20T04:26:23.968Z,19.39
2019-05-20T04:27:23.913Z,19.40
2019-05-20T04:28:23.867Z,19.44
2019-05-20T04:29:23.816Z,19.44
2019-05-20T04:30:23.771Z,19.33
2019-05-20T04:31:23.711Z,19.30
2019-05-20T04:32:23.666Z,19.27
2019-05-20T04:33:23.633Z,19.31
2019-05-20T04:34:23.598Z,19.26
2019-05-20T04:35:23.792Z,19.19
2019-05-20T04:36:23.490Z,19.21
2019-05-20T04:37:23.451Z,19.16
2019-05-20T04:38:23.397Z,19.21
2019-05-20T04:39:23.338Z,19.27
2019-05-20T04:40:23.302Z,19.26
2019-05-20T04:41:23.250Z,19.19
2019-05-20T04:42:23.208Z,19.19
2019-05-20T04:43:23.170Z,19.19
2019-05-20T04:44:23.114Z,19.14
2019-05-20T04:45:23.054Z,19.08
2019-05-20T04:46:23.097Z,19.12
2019-05-20T04:47:22.973Z,18.95
2019-05-20T04:48:22.933Z,18.95
2019-05-20T04:49:22.866Z,18.95
2019-05-20T04:50:22.834Z,18.88
2019-05-20T04:51:22.783Z,18.88
2019-05-20T04:52:22.743Z,18.81
2019-05-20T04:53:22.713Z,18.90
2019-05-20T04:54:22.643Z,18.80
2019-05-20T04:55:22.598Z,18.75
2019-05-20T04:56:22.537Z,18.84
2019-05-20T04:57:22.489Z,18.86
2019-05-20T04:58:22.467Z,18.83
2019-05-20T04:59:22.416Z,18.88
2019-05-20T05:00:22.347Z,18.88
2019-05-20T05:01:22.300Z,18.86
2019-05-20T05:02:22.262Z,18.88
2019-05-20T05:03:22.240Z,18.86
2019-05-20T05:04:22.179Z,18.84
2019-05-20T05:05:36.847Z,18.89
2019-05-20T05:06:22.075Z,18.86
2019-05-20T05:07:22.028Z,18.93
2019-05-20T05:08:21.981Z,18.96
2019-05-20T05:09:21.934Z,18.84
2019-05-20T05:10:21.874Z,18.89
2019-05-20T05:11:21.840Z,18.80
2019-05-20T05:12:21.801Z,18.81
2019-05-20T05:13:21.745Z,18.68
2019-05-20T05:14:21.688Z,18.66
2019-05-20T05:15:21.662Z,18.68
2019-05-20T05:16:21.591Z,18.65
2019-05-20T05:17:21.545Z,18.56
2019-05-20T05:18:21.521Z,18.55
2019-05-20T05:19:21.464Z,18.56
2019-05-20T05:20:21.404Z,18.52
2019-05-20T05:21:21.354Z,18.59
2019-05-20T05:22:21.315Z,18.62
2019-05-20T05:23:21.273Z,18.60
2019-05-20T05:24:21.212Z,18.63
2019-05-20T05:25:21.166Z,18.65
2019-05-20T05:26:21.120Z,18.63
2019-05-20T05:27:21.070Z,18.58
2019-05-20T05:28:21.026Z,18.50
2019-05-20T05:29:20.993Z,18.52
2019-05-20T05:30:20.953Z,18.38
2019-05-20T05:31:20.885Z,18.44
2019-05-20T05:32:20.834Z,18.33
2019-05-20T05:33:20.810Z,18.43
2019-05-20T05:34:20.751Z,18.41
2019-05-20T05:35:20.709Z,18.45
2019-05-20T05:36:20.653Z,18.44
2019-05-20T05:37:20.606Z,18.44
2019-05-20T05:38:20.576Z,18.50
2019-05-20T05:39:20.527Z,18.49
2019-05-20T05:40:20.456Z,18.53
2019-05-20T05:41:20.430Z,18.44
2019-05-20T05:42:20.382Z,18.59
2019-05-20T05:43:20.321Z,18.58
2019-05-20T05:44:20.269Z,18.52
2019-05-20T05:45:20.245Z,18.41
2019-05-20T05:46:20.195Z,18.40
2019-05-20T05:47:20.158Z,18.35
2019-05-20T05:48:20.101Z,18.35
2019-05-20T05:49:20.055Z,18.26
2019-05-20T05:50:19.998Z,18.34
2019-05-20T05:51:19.949Z,18.31
2019-05-20T05:52:22.827Z,18.44
2019-05-20T05:53:19.840Z,18.31
2019-05-20T05:54:19.806Z,18.40
2019-05-20T05:55:19.760Z,18.43
2019-05-20T05:56:19.707Z,18.44
2019-05-20T05:57:19.651Z,18.47
2019-05-20T05:58:19.618Z,18.40
2019-05-20T05:59:19.569Z,18.52
2019-05-20T06:00:19.533Z,18.53
2019-05-20T06:01:19.507Z,18.55
2019-05-20T06:02:19.422Z,18.58
2019-05-20T06:03:19.369Z,18.50
2019-05-20T06:04:19.331Z,18.50
2019-05-20T06:05:19.293Z,18.52
2019-05-20T06:06:19.236Z,18.56
2019-05-20T06:07:19.240Z,18.53
2019-05-20T06:08:19.226Z,18.50
2019-05-20T06:09:19.082Z,18.49
2019-05-20T06:10:19.034Z,18.52
2019-05-20T06:11:19.014Z,18.59
2019-05-20T06:12:18.948Z,18.45
2019-05-20T06:13:18.907Z,18.53
2019-05-20T06:14:18.858Z,18.58
2019-05-20T06:15:18.813Z,18.60
2019-05-20T06:16:35.430Z,18.63
2019-05-20T06:17:18.736Z,18.50
2019-05-20T06:18:18.656Z,18.33
2019-05-20T06:19:18.620Z,18.35
2019-05-20T06:20:18.597Z,18.26
2019-05-20T06:21:18.529Z,18.31
2019-05-20T06:22:18.490Z,18.31
2019-05-20T06:23:18.443Z,18.26
2019-05-20T06:24:18.385Z,18.33
2019-05-20T06:25:18.332Z,18.37
2019-05-20T06:26:18.276Z,18.16
2019-05-20T06:27:18.268Z,18.34
2019-05-20T06:28:18.190Z,18.19
2019-05-20T06:29:18.157Z,18.22
2019-05-20T06:30:18.090Z,18.22
2019-05-20T06:31:18.053Z,18.19
2019-05-20T06:32:18.073Z,18.26
2019-05-20T06:33:17.967Z,18.26
2019-05-20T06:34:17.898Z,18.15
2019-05-20T06:35:17.862Z,18.15
2019-05-20T06:36:26.402Z,18.18
2019-05-20T06:37:17.754Z,18.11
2019-05-20T06:38:17.707Z,18.16
2019-05-20T06:39:17.683Z,18.04
2019-05-20T06:40:17.623Z,18.19
2019-05-20T06:41:17.565Z,18.25
2019-05-20T06:42:17.546Z,18.22
2019-05-20T06:43:17.491Z,18.34
2019-05-20T06:44:17.425Z,18.29
2019-05-20T06:45:17.410Z,18.33
2019-05-20T06:46:17.349Z,18.44
2019-05-20T06:47:17.291Z,18.43
2019-05-20T06:48:17.232Z,18.41
2019-05-20T06:49:17.210Z,18.41
2019-05-20T06:50:17.138Z,18.35
2019-05-20T06:51:17.092Z,18.31
2019-05-20T06:52:17.055Z,18.37
2019-05-20T06:53:17.004Z,18.22
2019-05-20T06:54:16.967Z,18.18
2019-05-20T06:55:16.921Z,18.05
2019-05-20T06:56:16.877Z,18.18
2019-05-20T06:57:16.804Z,18.11
2019-05-20T06:58:16.774Z,18.22
2019-05-20T06:59:16.724Z,18.20
2019-05-20T07:00:16.672Z,18.13
2019-05-20T07:01:16.628Z,18.23
2019-05-20T07:02:16.577Z,18.35
2019-05-20T07:03:16.533Z,18.33
2019-05-20T07:04:16.497Z,18.37
2019-05-20T07:05:16.438Z,18.38
2019-05-20T07:06:16.391Z,18.40
2019-05-20T07:07:20.798Z,18.40
2019-05-20T07:08:16.296Z,18.34
2019-05-20T07:09:16.298Z,18.43
2019-05-20T07:10:16.212Z,18.25
2019-05-20T07:11:16.142Z,18.41
2019-05-20T07:12:16.106Z,18.34
2019-05-20T07:13:16.477Z,18.41
2019-05-20T07:14:16.010Z,18.33
2019-05-20T07:15:15.959Z,18.28
2019-05-20T07:16:15.918Z,18.33
2019-05-20T07:17:15.877Z,18.26
2019-05-20T07:18:15.833Z,18.26
2019-05-20T07:19:15.769Z,18.31
2019-05-20T07:20:15.734Z,18.19
2019-05-20T07:21:15.679Z,18.16
2019-05-20T07:22:15.627Z,18.13
2019-05-20T07:23:15.582Z,18.04
2019-05-20T07:24:15.523Z,18.10
2019-05-20T07:25:15.492Z,18.00
2019-05-20T07:26:15.459Z,18.05
2019-05-20T07:27:15.390Z,17.98
2019-05-20T07:28:15.334Z,18.16
2019-05-20T07:29:15.288Z,18.03
2019-05-20T07:30:15.823Z,18.22
2019-05-20T07:31:15.203Z,18.08
2019-05-20T07:32:15.147Z,18.15
2019-05-20T07:33:15.103Z,18.20
2019-05-20T07:34:15.085Z,18.18
2019-05-20T07:35:28.689Z,18.23
2019-05-20T07:36:14.967Z,18.20
2019-05-20T07:37:14.930Z,18.19
2019-05-20T07:38:14.922Z,18.13
2019-05-20T07:39:14.832Z,18.07
2019-05-20T07:40:14.788Z,18.01
2019-05-20T07:41:14.731Z,18.05
2019-05-20T07:42:14.677Z,18.08
2019-05-20T07:43:14.644Z,18.03
2019-05-20T07:44:14.601Z,18.18
2019-05-20T07:45:14.570Z,18.22
2019-05-20T07:46:14.478Z,18.28
2019-05-20T07:47:14.443Z,18.41
2019-05-20T07:48:14.402Z,18.45
2019-05-20T07:49:14.336Z,18.40
2019-05-20T07:50:14.299Z,18.47
2019-05-20T07:51:14.268Z,18.50
2019-05-20T07:52:14.245Z,18.47
2019-05-20T07:53:14.153Z,18.55
2019-05-20T07:54:14.109Z,18.63
2019-05-20T07:55:14.061Z,18.65
2019-05-20T07:56:14.016Z,18.60
2019-05-20T07:57:13.997Z,18.56
2019-05-20T07:58:13.930Z,18.59
2019-05-20T07:59:13.881Z,18.56
2019-05-20T08:00:13.826Z,18.50
2019-05-20T08:01:13.777Z,18.52
2019-05-20T08:02:13.740Z,18.50
2019-05-20T08:03:13.696Z,18.55
2019-05-20T08:04:13.690Z,18.53
2019-05-20T08:05:13.585Z,18.53
2019-05-20T08:06:13.544Z,18.35
2019-05-20T08:07:27.312Z,18.53
2019-05-20T08:08:13.468Z,18.52
2019-05-20T08:09:13.414Z,18.58
2019-05-20T08:10:13.360Z,18.55
2019-05-20T08:11:13.291Z,18.65
2019-05-20T08:12:13.257Z,18.62
2019-05-20T08:13:13.215Z,18.58
2019-05-20T08:14:13.174Z,18.60
2019-05-20T08:15:13.103Z,18.59
2019-05-20T08:16:13.067Z,18.56
2019-05-20T08:17:13.030Z,18.62
2019-05-20T08:18:12.959Z,18.60
2019-05-20T08:19:12.933Z,18.62
2019-05-20T08:20:12.881Z,18.71
2019-05-20T08:21:12.818Z,18.68
2019-05-20T08:22:12.795Z,18.71
2019-05-20T08:23:12.723Z,18.62
2019-05-20T08:24:12.688Z,18.74
2019-05-20T08:25:12.646Z,18.66
2019-05-20T08:26:12.591Z,18.73
2019-05-20T08:27:12.548Z,18.68
2019-05-20T08:28:12.488Z,18.73
2019-05-20T08:29:12.450Z,18.63
2019-05-20T08:30:14.216Z,18.62
2019-05-20T08:31:12.361Z,18.63
2019-05-20T08:32:12.312Z,18.74
2019-05-20T08:33:12.249Z,18.73
2019-05-20T08:34:12.229Z,18.81
2019-05-20T08:35:12.169Z,18.65
2019-05-20T08:36:12.129Z,18.70
2019-05-20T08:37:12.061Z,18.63
2019-05-20T08:38:12.013Z,18.68
2019-05-20T08:39:11.978Z,18.59
2019-05-20T08:40:11.918Z,18.60
2019-05-20T08:41:11.895Z,18.66
2019-05-20T08:42:11.839Z,18.62
2019-05-20T08:43:11.776Z,18.66
2019-05-20T08:44:11.733Z,18.68
2019-05-20T08:45:11.690Z,18.65
2019-05-20T08:46:11.635Z,18.63
2019-05-20T08:47:11.601Z,18.65
2019-05-20T08:48:11.549Z,18.63
2019-05-20T08:49:11.896Z,18.63
2019-05-20T08:50:15.938Z,18.65
2019-05-20T08:51:11.423Z,18.66
2019-05-20T08:52:11.372Z,18.62
2019-05-20T08:53:11.317Z,18.56
2019-05-20T08:54:11.279Z,18.60
2019-05-20T08:55:11.235Z,18.56
2019-05-20T08:56:11.280Z,18.56
2019-05-20T08:57:11.129Z,18.45
2019-05-20T08:58:11.082Z,18.53
2019-05-20T08:59:11.071Z,18.55
2019-05-20T09:00:10.986Z,18.49
2019-05-20T09:01:12.257Z,18.52
2019-05-20T09:02:10.890Z,18.55
2019-05-20T09:03:10.831Z,18.53
2019-05-20T09:04:10.826Z,18.52
2019-05-20T09:05:10.752Z,18.53
2019-05-20T09:06:10.726Z,18.59
2019-05-20T09:07:10.666Z,18.65
2019-05-20T09:08:10.594Z,18.65
2019-05-20T09:09:12.325Z,18.75
2019-05-20T09:10:10.513Z,18.73
2019-05-20T09:11:10.455Z,18.80
2019-05-20T09:12:10.434Z,18.70
2019-05-20T09:13:10.369Z,18.68
2019-05-20T09:14:10.321Z,18.66
2019-05-20T09:15:10.287Z,18.78
2019-05-20T09:16:10.228Z,18.66
2019-05-20T09:17:10.172Z,18.68
2019-05-20T09:18:10.137Z,18.63
2019-05-20T09:19:10.090Z,18.66
2019-05-20T09:20:10.037Z,18.62
2019-05-20T09:21:10.195Z,18.60
2019-05-20T09:22:09.944Z,18.60
2019-05-20T09:23:09.900Z,18.63
2019-05-20T09:24:09.842Z,18.68
2019-05-20T09:25:10.135Z,18.63
2019-05-20T09:26:09.765Z,18.63
2019-05-20T09:27:09.696Z,18.49
2019-05-20T09:28:09.686Z,18.53
2019-05-20T09:29:11.446Z,18.56
2019-05-20T09:30:09.578Z,18.47
2019-05-20T09:31:09.519Z,18.34
2019-05-20T09:32:09.470Z,18.38
2019-05-20T09:33:09.436Z,18.40
2019-05-20T09:34:09.401Z,18.50
2019-05-20T09:35:09.365Z,18.41
2019-05-20T09:36:09.334Z,18.29
2019-05-20T09:37:09.249Z,18.29
2019-05-20T09:38:19.370Z,18.34
2019-05-20T09:39:09.200Z,18.41
2019-05-20T09:40:09.093Z,18.35
2019-05-20T09:41:09.062Z,18.34
2019-05-20T09:42:09.037Z,18.31
2019-05-20T09:43:08.982Z,18.43
2019-05-20T09:44:08.975Z,18.37
2019-05-20T09:45:08.851Z,18.47
2019-05-20T09:46:08.810Z,18.40
2019-05-20T09:47:08.830Z,18.43
2019-05-20T09:48:08.777Z,18.49
2019-05-20T09:49:08.679Z,18.43
2019-05-20T09:50:08.613Z,18.45
2019-05-20T09:51:08.595Z,18.50
2019-05-20T09:52:08.513Z,18.56
2019-05-20T09:53:08.496Z,18.59
2019-05-20T09:54:08.480Z,18.49
2019-05-20T09:55:08.453Z,18.53
2019-05-20T09:56:08.328Z,18.53
2019-05-20T09:57:08.431Z,18.53
2019-05-20T09:58:08.295Z,18.55
2019-05-20T09:59:08.190Z,18.49
2019-05-20T10:00:08.145Z,18.52
2019-05-20T10:01:08.233Z,18.53
2019-05-20T10:02:08.101Z,18.49
2019-05-20T10:03:08.015Z,18.41
2019-05-20T10:04:07.952Z,18.50
2019-05-20T10:05:07.897Z,18.52
2019-05-20T10:06:07.877Z,18.38
2019-05-20T10:07:07.816Z,18.55
2019-05-20T10:08:07.779Z,18.55
2019-05-20T10:09:07.757Z,18.63
2019-05-20T10:10:07.678Z,18.63
2019-05-20T10:11:07.626Z,18.60
2019-05-20T10:12:07.579Z,18.62
2019-05-20T10:13:08.254Z,18.66
2019-05-20T10:14:07.487Z,18.65
2019-05-20T10:15:07.480Z,18.66
2019-05-20T10:16:07.711Z,18.59
2019-05-20T10:17:07.409Z,18.65
2019-05-20T10:18:07.349Z,18.60
2019-05-20T10:19:07.286Z,18.59
2019-05-20T10:20:07.271Z,18.62
2019-05-20T10:21:07.153Z,18.59
2019-05-20T10:22:07.225Z,18.68
2019-05-20T10:23:07.301Z,18.66
2019-05-20T10:24:07.121Z,18.65
2019-05-20T10:25:07.048Z,18.59
2019-05-20T10:26:06.922Z,18.60
2019-05-20T10:27:06.858Z,18.60
2019-05-20T10:28:06.830Z,18.60
2019-05-20T10:29:06.790Z,18.55
2019-05-20T10:30:06.717Z,18.56
2019-05-20T10:31:06.680Z,18.55
2019-05-20T10:32:06.618Z,18.55
2019-05-20T10:33:09.238Z,18.53
2019-05-20T10:34:06.547Z,18.45
2019-05-20T10:35:06.491Z,18.53
2019-05-20T10:36:06.475Z,18.45
2019-05-20T10:37:06.394Z,18.56
2019-05-20T10:38:06.338Z,18.43
2019-05-20T10:39:07.918Z,18.45
2019-05-20T10:40:06.253Z,18.43
2019-05-20T10:41:06.203Z,18.52
2019-05-20T10:42:06.162Z,18.45
2019-05-20T10:43:06.110Z,18.63
2019-05-20T10:44:06.054Z,18.59
2019-05-20T10:45:06.009Z,18.60
2019-05-20T10:46:05.980Z,18.63
2019-05-20T10:47:05.926Z,18.73
2019-05-20T10:48:08.746Z,18.73
2019-05-20T10:49:05.827Z,18.71
2019-05-20T10:50:05.794Z,18.65
2019-05-20T10:51:05.740Z,18.88
2019-05-20T10:52:05.693Z,18.71
2019-05-20T10:53:05.627Z,18.70
2019-05-20T10:54:05.593Z,18.71
2019-05-20T10:55:05.561Z,18.73
2019-05-20T10:56:05.500Z,18.73
2019-05-20T10:57:05.462Z,18.71
2019-05-20T10:58:05.414Z,18.73
2019-05-20T10:59:05.369Z,18.73
2019-05-20T11:00:05.302Z,18.65
2019-05-20T11:01:05.256Z,18.63
2019-05-20T11:02:05.211Z,18.62
2019-05-20T11:03:05.166Z,18.66
2019-05-20T11:04:05.114Z,18.59
2019-05-20T11:05:05.086Z,18.65
2019-05-20T11:06:05.318Z,18.65
2019-05-20T11:07:04.965Z,18.74
2019-05-20T11:08:04.929Z,18.73
2019-05-20T11:09:13.605Z,18.71
2019-05-20T11:10:04.832Z,18.88
2019-05-20T11:11:04.826Z,18.78
2019-05-20T11:12:04.734Z,18.86
2019-05-20T11:13:04.697Z,18.90
2019-05-20T11:14:04.644Z,18.81
2019-05-20T11:15:04.589Z,18.89
2019-05-20T11:16:04.568Z,18.81
2019-05-20T11:17:04.508Z,18.86
2019-05-20T11:18:04.445Z,18.84
2019-05-20T11:19:04.447Z,18.95
2019-05-20T11:20:04.382Z,18.96
2019-05-20T11:21:04.334Z,18.89
2019-05-20T11:22:04.285Z,18.84
2019-05-20T11:23:04.214Z,18.80
2019-05-20T11:24:04.177Z,18.86
2019-05-20T11:25:04.128Z,18.88
2019-05-20T11:26:04.088Z,18.84
2019-05-20T11:27:04.029Z,18.81
2019-05-20T11:28:04.034Z,18.83
2019-05-20T11:29:03.939Z,18.70
2019-05-20T11:30:03.900Z,18.86
2019-05-20T11:31:03.864Z,18.71
2019-05-20T11:32:03.808Z,18.74
2019-05-20T11:33:03.746Z,18.86
2019-05-20T11:34:03.699Z,18.70
2019-05-20T11:35:03.638Z,18.89
2019-05-20T11:36:03.596Z,18.92
2019-05-20T11:37:03.547Z,18.81
2019-05-20T11:38:03.509Z,18.81
2019-05-20T11:39:06.987Z,18.78
2019-05-20T11:40:04.565Z,18.89
2019-05-20T11:41:03.356Z,18.86
2019-05-20T11:42:03.307Z,18.90
2019-05-20T11:43:03.274Z,18.95
2019-05-20T11:44:03.269Z,18.98
2019-05-20T11:45:03.179Z,18.95
2019-05-20T11:46:03.129Z,18.92
2019-05-20T11:47:03.093Z,18.84
2019-05-20T11:48:03.047Z,18.89
2019-05-20T11:49:02.990Z,18.95
2019-05-20T11:50:03.407Z,18.88
2019-05-20T11:51:02.887Z,18.83
2019-05-20T11:52:02.864Z,18.86
2019-05-20T11:53:02.798Z,18.81
2019-05-20T11:54:02.759Z,18.84
2019-05-20T11:55:02.705Z,18.89
2019-05-20T11:56:02.660Z,18.93
2019-05-20T11:57:02.613Z,18.99
2019-05-20T11:58:15.183Z,19.00
2019-05-20T11:59:02.518Z,18.98
2019-05-20T12:00:02.468Z,19.08
2019-05-20T12:01:02.424Z,19.07
2019-05-20T12:02:04.015Z,19.08
2019-05-20T12:03:02.329Z,19.14
2019-05-20T12:04:02.269Z,19.12
2019-05-20T12:05:02.421Z,19.11
2019-05-20T12:06:02.984Z,19.07
2019-05-20T12:07:02.133Z,18.95
2019-05-20T12:08:02.087Z,18.95
2019-05-20T12:09:02.059Z,18.95
2019-05-20T12:10:02.000Z,18.95
2019-05-20T12:11:01.948Z,19.08
2019-05-20T12:12:01.900Z,18.95
2019-05-20T12:13:01.854Z,19.04
2019-05-20T12:14:01.831Z,19.00
2019-05-20T12:15:02.048Z,19.07
2019-05-20T12:16:01.725Z,19.09
2019-05-20T12:17:01.664Z,19.12
2019-05-20T12:18:01.627Z,19.11
2019-05-20T12:19:01.574Z,19.12
2019-05-20T12:20:01.591Z,19.12
2019-05-20T12:21:01.478Z,19.24
2019-05-20T12:22:01.431Z,19.14
2019-05-20T12:23:01.386Z,19.18
2019-05-20T12:24:01.356Z,19.22
2019-05-20T12:25:01.294Z,19.29
2019-05-20T12:26:01.254Z,19.19
2019-05-20T12:27:01.207Z,19.24
2019-05-20T12:28:01.188Z,19.26
2019-05-20T12:29:01.121Z,19.27
2019-05-20T12:30:01.054Z,19.21
2019-05-20T12:31:01.018Z,19.11
2019-05-20T12:32:03.434Z,19.15
2019-05-20T12:33:17.727Z,19.11
2019-05-20T12:34:00.873Z,19.12
2019-05-20T12:35:00.810Z,19.11
2019-05-20T12:36:00.776Z,19.21
2019-05-20T12:37:00.758Z,19.16
2019-05-20T12:38:00.676Z,19.12
2019-05-20T12:39:00.649Z,19.11
2019-05-20T12:40:06.914Z,19.09
2019-05-20T12:41:00.558Z,19.12
2019-05-20T12:42:00.500Z,19.24
2019-05-20T12:43:00.441Z,19.09
2019-05-20T12:44:12.323Z,19.04
2019-05-20T12:45:00.347Z,18.96
2019-05-20T12:46:00.398Z,18.96
2019-05-20T12:47:00.264Z,19.07
2019-05-20T12:48:00.203Z,18.99
2019-05-20T12:49:00.200Z,19.12
2019-05-20T12:50:00.113Z,19.08
2019-05-20T12:51:00.077Z,19.11
2019-05-20T12:52:00.018Z,19.19